Aleksandrovsk-Sahalinskij, Russia
Current Conditions -  °F | °C
As of 1:30 PM on Saturday 25 Oct 2014 (Local Time) from UHSS Reporting Station
Haze Haze  
Wind Chill: 55°   Ceiling: 2500
Heat Index: 55°   Visibility: 3mi
Dew Point: 55°   Wind: 7mph
Humidity: 100%   Direction: 220°SW
Pressure: 29.83"   Gusts: NA
Location:  50.9°N, 142.16°E
Report Text: UHSS 250230Z 22003MPS 5000 BR SCT008 BKN025CB 13/13 Q1010 NOSIGRMK MT OBSC QFE756/1009 19250255
Loading
Personal Weather Stations






























Interactive Weather Map
Tropical Storm Tracking
New forecast layout! Learn more

10-Day Weather Forecast

Advertisements
Track Severe Weather on mobile